Carter, South Dakota
Current Conditions -  °F | °C
As of 12:53 PM on Saturday 20 Dec 2014 (Local Time) from KICR Reporting Station
Clear Clear  
Wind Chill: 29°   Ceiling: Unl
Heat Index: 34°   Visibility: 10mi
Dew Point: 24°   Wind: 6mph
Humidity: 67%   Direction: 190°S
Pressure: 29.92"   Gusts: NA
Location:  43.39°N, 100.2°W
Report Text: KICR 201853Z AUTO 19005KT 10SM CLR 01/M04 A2992 RMK AO2 SLP151 T00111044
Loading
Personal Weather Stations






























Interactive Weather Map New forecast layout! Learn more

10-Day Weather Forecast

Advertisements
Track Severe Weather on mobile